Time;durP1;ratioP1;P1;durP2;ratioP2;P2;SDS_P1;SDS_P2;PMS_P1;PMS_P2;Temp;Humidity;BMP_temperature;BMP_pressure;BME280_temperature;BME280_humidity;BME280_pressure;Samples;Min_cycle;Max_cycle;Signal;HPM_P1;HPM_P2
2023/02/22 00:00:18;;;;;;;20.42;10.25;;;;;;;;;;5091131;28;20081;-76
2023/02/22 00:02:45;;;;;;;19.90;9.60;;;;;;;;;;5081996;28;20071;-76
2023/02/22 00:05:14;;;;;;;21.58;9.93;;;;;;;;;;5084378;28;20035;-76
2023/02/22 00:07:40;;;;;;;17.30;8.48;;;;;;;;;;5089943;28;20036;-76
2023/02/22 00:10:12;;;;;;;16.90;7.93;;;;;;;;;;5088352;28;20047;-76
2023/02/22 00:12:38;;;;;;;18.88;8.75;;;;;;;;;;5089605;28;20040;-76
2023/02/22 00:15:04;;;;;;;19.55;8.40;;;;;;;;;;5091199;28;20032;-76
2023/02/22 00:17:30;;;;;;;16.58;8.00;;;;;;;;;;5086922;28;20050;-76
2023/02/22 00:19:56;;;;;;;13.93;7.28;;;;;;;;;;5091180;28;20028;-76
2023/02/22 00:22:22;;;;;;;14.75;6.57;;;;;;;;;;5091582;28;20849;-76
2023/02/22 00:24:49;;;;;;;13.82;6.18;;;;;;;;;;5090202;28;20039;-76
2023/02/22 00:27:15;;;;;;;11.73;5.95;;;;;;;;;;5090098;28;20036;-76
2023/02/22 00:29:45;;;;;;;10.93;5.53;;;;;;;;;;5081080;28;20030;-76
2023/02/22 00:32:11;;;;;;;10.40;5.00;;;;;;;;;;5081468;28;20085;-76
2023/02/22 00:34:37;;;;;;;13.98;5.07;;;;;;;;;;5087559;28;20047;-76
2023/02/22 00:37:03;;;;;;;12.50;5.15;;;;;;;;;;5078750;28;20101;-76
2023/02/22 00:39:30;;;;;;;12.43;5.28;;;;;;;;;;5087397;28;20060;-76
2023/02/22 00:41:56;;;;;;;15.25;5.80;;;;;;;;;;5089573;28;20048;-76
2023/02/22 00:44:22;;;;;;;12.15;5.47;;;;;;;;;;5084430;28;20047;-76
2023/02/22 00:46:48;;;;;;;13.25;6.68;;;;;;;;;;5091137;28;20042;-76
2023/02/22 00:49:15;;;;;;;12.05;6.55;;;;;;;;;;5089193;28;20031;-76
2023/02/22 00:51:41;;;;;;;16.02;7.10;;;;;;;;;;5074106;28;20039;-76
2023/02/22 00:54:07;;;;;;;17.35;9.35;;;;;;;;;;5090242;28;20111;-76
2023/02/22 00:56:34;;;;;;;29.13;15.82;;;;;;;;;;5089210;28;20115;-76
2023/02/22 00:59:00;;;;;;;23.13;11.48;;;;;;;;;;5090440;28;20032;-76
2023/02/22 01:01:27;;;;;;;19.75;9.43;;;;;;;;;;5082159;28;20036;-76
2023/02/22 01:03:53;;;;;;;17.65;9.00;;;;;;;;;;5084052;28;20849;-76
2023/02/22 01:06:19;;;;;;;16.15;7.38;;;;;;;;;;5086467;28;20032;-76
2023/02/22 01:08:46;;;;;;;17.55;6.60;;;;;;;;;;5085904;28;20025;-76
2023/02/22 01:11:12;;;;;;;15.00;5.82;;;;;;;;;;5090352;28;20036;-76
2023/02/22 01:13:38;;;;;;;18.63;6.05;;;;;;;;;;5058707;28;20083;-76
2023/02/22 01:16:07;;;;;;;15.18;7.97;;;;;;;;;;5088734;28;20552;-76
2023/02/22 01:18:34;;;;;;;23.55;11.05;;;;;;;;;;5087415;28;20469;-76
2023/02/22 01:21:00;;;;;;;15.60;8.20;;;;;;;;;;5090032;28;20111;-76
2023/02/22 01:23:26;;;;;;;16.50;7.22;;;;;;;;;;5088942;28;20056;-76
2023/02/22 01:25:52;;;;;;;17.50;9.05;;;;;;;;;;5090001;28;20109;-76
2023/02/22 01:28:21;;;;;;;19.40;8.70;;;;;;;;;;5086675;28;20051;-76
2023/02/22 01:30:47;;;;;;;16.55;8.95;;;;;;;;;;5073570;28;20039;-76
2023/02/22 01:33:14;;;;;;;17.42;8.70;;;;;;;;;;5077591;28;20028;-76
2023/02/22 01:35:41;;;;;;;19.02;9.70;;;;;;;;;;5089584;28;20040;-76
2023/02/22 01:38:07;;;;;;;19.33;9.43;;;;;;;;;;5088931;28;20032;-76
2023/02/22 01:40:35;;;;;;;19.30;8.90;;;;;;;;;;5080510;28;20477;-76
2023/02/22 01:43:03;;;;;;;16.80;8.40;;;;;;;;;;5086467;28;20085;-76
2023/02/22 01:45:32;;;;;;;17.73;8.38;;;;;;;;;;5088756;28;20196;-75
2023/02/22 01:48:00;;;;;;;16.73;8.02;;;;;;;;;;5088840;28;20036;-76
2023/02/22 01:50:27;;;;;;;17.42;7.80;;;;;;;;;;5088191;28;20047;-76
2023/02/22 01:52:53;;;;;;;18.20;8.10;;;;;;;;;;5088639;28;20445;-76
2023/02/22 01:55:19;;;;;;;15.43;7.07;;;;;;;;;;5088993;28;20028;-76
2023/02/22 01:57:45;;;;;;;21.08;8.32;;;;;;;;;;5088029;28;20030;-76
2023/02/22 02:00:19;;;;;;;16.20;7.93;;;;;;;;;;5087818;28;20045;-76
2023/02/22 02:02:47;;;;;;;22.10;9.75;;;;;;;;;;5087368;28;20060;-76
2023/02/22 02:05:13;;;;;;;23.08;10.25;;;;;;;;;;5084205;28;20040;-76
2023/02/22 02:07:39;;;;;;;27.80;11.63;;;;;;;;;;5089857;28;20071;-76
2023/02/22 02:10:14;;;;;;;28.98;12.80;;;;;;;;;;5086415;28;20402;-76
2023/02/22 02:12:42;;;;;;;19.20;7.95;;;;;;;;;;5085976;28;20070;-76
2023/02/22 02:15:22;;;;;;;13.02;6.72;;;;;;;;;;5088102;28;20036;-75
2023/02/22 02:17:49;;;;;;;15.75;6.53;;;;;;;;;;5084541;28;20120;-76
2023/02/22 02:20:18;;;;;;;16.08;6.63;;;;;;;;;;5083706;28;20032;-76
2023/02/22 02:22:55;;;;;;;13.07;6.00;;;;;;;;;;5084844;28;20036;-76
2023/02/22 02:25:34;;;;;;;14.70;7.22;;;;;;;;;;5079285;28;20107;-76
2023/02/22 02:28:15;;;;;;;20.23;8.20;;;;;;;;;;5088116;28;20114;-76
2023/02/22 02:31:00;;;;;;;36.70;15.45;;;;;;;;;;5087690;28;20036;-76
2023/02/22 02:33:31;;;;;;;40.38;15.45;;;;;;;;;;5088514;28;20069;-76
2023/02/22 02:36:01;;;;;;;45.65;17.17;;;;;;;;;;5086642;28;20036;-76
2023/02/22 02:38:27;;;;;;;40.83;15.90;;;;;;;;;;5082166;28;20615;-76
2023/02/22 02:40:56;;;;;;;41.60;14.98;;;;;;;;;;5084003;28;20072;-76
2023/02/22 02:43:22;;;;;;;37.35;14.07;;;;;;;;;;5078358;28;20033;-76
2023/02/22 02:45:48;;;;;;;53.05;19.10;;;;;;;;;;5082911;28;20080;-76
2023/02/22 02:48:15;;;;;;;60.40;22.40;;;;;;;;;;5086037;28;20504;-76
2023/02/22 02:50:46;;;;;;;91.85;35.00;;;;;;;;;;5085180;28;20081;-76
2023/02/22 02:53:13;;;;;;;76.07;27.23;;;;;;;;;;5083079;28;20024;-76
2023/02/22 02:55:39;;;;;;;60.28;24.40;;;;;;;;;;5087841;28;20866;-76
2023/02/22 02:58:07;;;;;;;59.30;24.17;;;;;;;;;;5091291;28;20024;-76
2023/02/22 03:00:38;;;;;;;51.65;21.40;;;;;;;;;;5082369;28;20034;-75
2023/02/22 03:03:04;;;;;;;33.38;13.32;;;;;;;;;;5092634;28;20069;-76
2023/02/22 03:05:56;;;;;;;21.55;9.40;;;;;;;;;;5089879;28;20103;-76
2023/02/22 03:08:23;;;;;;;27.67;10.35;;;;;;;;;;5054955;28;20127;-76
2023/02/22 03:10:52;;;;;;;21.73;8.65;;;;;;;;;;5091088;28;20047;-76
2023/02/22 03:13:21;;;;;;;20.83;8.68;;;;;;;;;;5092310;28;20035;-76
2023/02/22 03:15:50;;;;;;;23.95;8.30;;;;;;;;;;5091366;28;20106;-76
2023/02/22 03:18:21;;;;;;;15.63;7.15;;;;;;;;;;5088306;28;20029;-76
2023/02/22 03:20:50;;;;;;;15.77;7.32;;;;;;;;;;5084097;28;20020;-76
2023/02/22 03:23:25;;;;;;;16.27;6.88;;;;;;;;;;5079693;28;20033;-76
2023/02/22 03:25:55;;;;;;;17.25;8.43;;;;;;;;;;5090300;28;20366;-76
2023/02/22 03:28:25;;;;;;;25.20;9.63;;;;;;;;;;5089936;28;20118;-76
2023/02/22 03:30:54;;;;;;;51.13;23.15;;;;;;;;;;5075486;28;20056;-76
2023/02/22 03:33:32;;;;;;;51.65;22.92;;;;;;;;;;5090467;28;20801;-76
2023/02/22 03:36:18;;;;;;;36.53;17.38;;;;;;;;;;5076820;28;20028;-76
2023/02/22 03:38:45;;;;;;;39.90;17.38;;;;;;;;;;5075963;28;20119;-76
2023/02/22 03:41:13;;;;;;;44.35;18.63;;;;;;;;;;5083536;28;20487;-76
2023/02/22 03:43:42;;;;;;;39.58;16.20;;;;;;;;;;5087313;28;20036;-76
2023/02/22 03:46:09;;;;;;;23.17;10.77;;;;;;;;;;5090551;28;20127;-76
2023/02/22 03:48:53;;;;;;;23.95;10.88;;;;;;;;;;5089216;28;20101;-76
2023/02/22 03:51:20;;;;;;;23.42;9.73;;;;;;;;;;5090479;28;20032;-76
2023/02/22 03:53:49;;;;;;;20.63;8.73;;;;;;;;;;5091724;28;20066;-76
2023/02/22 03:56:20;;;;;;;14.23;6.35;;;;;;;;;;5080732;28;20038;-76
2023/02/22 03:58:49;;;;;;;15.85;7.03;;;;;;;;;;5088804;28;20113;-75
2023/02/22 04:01:15;;;;;;;15.88;6.93;;;;;;;;;;5080308;28;20032;-76
2023/02/22 04:03:41;;;;;;;16.08;7.10;;;;;;;;;;5084981;28;20037;-75
2023/02/22 04:06:08;;;;;;;15.15;6.55;;;;;;;;;;5071927;28;20732;-76
2023/02/22 04:08:34;;;;;;;18.92;6.65;;;;;;;;;;5085139;28;20721;-76
2023/02/22 04:11:00;;;;;;;19.38;8.02;;;;;;;;;;5091144;28;20039;-76
2023/02/22 04:13:26;;;;;;;42.10;16.92;;;;;;;;;;5090309;28;20081;-76
2023/02/22 04:15:53;;;;;;;60.03;29.40;;;;;;;;;;5079347;28;20039;-76
2023/02/22 04:18:19;;;;;;;66.22;29.08;;;;;;;;;;5089563;28;20396;-76
2023/02/22 04:20:45;;;;;;;88.80;38.65;;;;;;;;;;5090523;28;20036;-76
2023/02/22 04:23:11;;;;;;;65.03;30.27;;;;;;;;;;5086235;28;20503;-76
2023/02/22 04:25:37;;;;;;;65.28;27.42;;;;;;;;;;5081717;28;20038;-76
2023/02/22 04:28:03;;;;;;;61.75;27.95;;;;;;;;;;5082719;28;20115;-76
2023/02/22 04:30:29;;;;;;;57.72;26.90;;;;;;;;;;5084662;28;20028;-75
2023/02/22 04:32:56;;;;;;;49.45;21.08;;;;;;;;;;5088765;28;20122;-76
2023/02/22 04:35:22;;;;;;;40.78;18.67;;;;;;;;;;5090627;28;20039;-75
2023/02/22 04:37:48;;;;;;;29.83;14.00;;;;;;;;;;5088940;28;20477;-76
2023/02/22 04:40:15;;;;;;;22.38;10.60;;;;;;;;;;5090810;28;20028;-75
2023/02/22 04:42:41;;;;;;;22.92;10.80;;;;;;;;;;5091014;28;20119;-76
2023/02/22 04:45:08;;;;;;;20.33;10.40;;;;;;;;;;5089825;28;20131;-75
2023/02/22 04:47:35;;;;;;;21.67;9.63;;;;;;;;;;5080162;28;20546;-75
2023/02/22 04:50:01;;;;;;;22.70;9.45;;;;;;;;;;5085815;28;20035;-76
2023/02/22 04:52:27;;;;;;;21.45;10.55;;;;;;;;;;5090714;28;20024;-76
2023/02/22 04:54:53;;;;;;;19.75;10.23;;;;;;;;;;5089334;28;20025;-76
2023/02/22 04:57:19;;;;;;;21.08;10.23;;;;;;;;;;5090053;28;20044;-76
2023/02/22 04:59:45;;;;;;;20.92;10.50;;;;;;;;;;5084216;28;20032;-76
2023/02/22 05:02:11;;;;;;;26.55;13.90;;;;;;;;;;5088782;28;20492;-76
2023/02/22 05:04:38;;;;;;;25.73;12.65;;;;;;;;;;5087459;22;20064;-76
2023/02/22 05:07:04;;;;;;;24.77;12.65;;;;;;;;;;5044536;28;20813;-76
2023/02/22 05:09:30;;;;;;;25.33;12.88;;;;;;;;;;5050354;28;20033;-75
2023/02/22 05:11:56;;;;;;;21.80;11.82;;;;;;;;;;5047863;28;20379;-76
2023/02/22 05:14:25;;;;;;;19.95;11.40;;;;;;;;;;5049571;28;20124;-76
2023/02/22 05:16:51;;;;;;;23.27;12.73;;;;;;;;;;5041431;28;20017;-75
2023/02/22 05:19:17;;;;;;;85.38;43.13;;;;;;;;;;5040505;28;20041;-76
2023/02/22 05:21:43;;;;;;;84.65;42.47;;;;;;;;;;5048884;28;20036;-76
2023/02/22 05:24:09;;;;;;;105.32;50.38;;;;;;;;;;5047458;28;20118;-76
2023/02/22 05:26:35;;;;;;;133.75;61.47;;;;;;;;;;5049111;28;20025;-76
2023/02/22 05:29:01;;;;;;;117.03;55.00;;;;;;;;;;5024563;28;20041;-76
2023/02/22 05:31:27;;;;;;;63.92;32.45;;;;;;;;;;5048632;28;20470;-76
2023/02/22 05:33:53;;;;;;;65.10;33.67;;;;;;;;;;5046216;28;20043;-76
2023/02/22 05:36:19;;;;;;;57.17;32.35;;;;;;;;;;5030666;28;20025;-76
2023/02/22 05:38:45;;;;;;;56.17;30.45;;;;;;;;;;5049493;28;20049;-76
2023/02/22 05:41:11;;;;;;;40.85;22.95;;;;;;;;;;5044025;28;20044;-76
2023/02/22 05:43:38;;;;;;;41.40;21.42;;;;;;;;;;5040056;28;20048;-76
2023/02/22 05:46:04;;;;;;;33.50;18.95;;;;;;;;;;5039126;28;20580;-76
2023/02/22 05:48:30;;;;;;;33.50;19.33;;;;;;;;;;5044582;28;20036;-76
2023/02/22 05:50:57;;;;;;;31.75;19.38;;;;;;;;;;5048887;28;20040;-76
2023/02/22 05:53:23;;;;;;;34.15;21.92;;;;;;;;;;5048473;28;20033;-76
2023/02/22 05:55:49;;;;;;;42.08;23.23;;;;;;;;;;5047958;28;20045;-76
2023/02/22 05:58:15;;;;;;;43.25;24.83;;;;;;;;;;5054336;28;20150;-75
2023/02/22 06:00:42;;;;;;;40.13;22.27;;;;;;;;;;5037639;28;20067;-76
2023/02/22 06:03:09;;;;;;;39.85;23.70;;;;;;;;;;5049105;28;20591;-75
2023/02/22 06:05:35;;;;;;;39.45;24.17;;;;;;;;;;5048320;28;20060;-76
2023/02/22 06:08:02;;;;;;;37.35;23.20;;;;;;;;;;5049086;28;20025;-75
2023/02/22 06:10:28;;;;;;;35.58;20.90;;;;;;;;;;5047877;28;20029;-76
2023/02/22 06:12:55;;;;;;;34.35;20.27;;;;;;;;;;5043397;28;20029;-75
2023/02/22 06:15:21;;;;;;;30.27;19.55;;;;;;;;;;5044751;28;20040;-76
2023/02/22 06:17:47;;;;;;;35.05;22.88;;;;;;;;;;5043921;28;20108;-75
2023/02/22 06:20:14;;;;;;;32.58;18.15;;;;;;;;;;5037545;28;20055;-75
2023/02/22 06:22:40;;;;;;;30.58;18.38;;;;;;;;;;5048684;28;20028;-75
2023/02/22 06:25:07;;;;;;;29.58;19.75;;;;;;;;;;5041390;28;20116;-76
2023/02/22 06:27:34;;;;;;;38.80;24.58;;;;;;;;;;5046494;28;20033;-76
2023/02/22 06:30:00;;;;;;;35.25;22.55;;;;;;;;;;5050366;28;20544;-76
2023/02/22 06:32:26;;;;;;;34.80;22.70;;;;;;;;;;5052264;28;20695;-76
2023/02/22 06:34:52;;;;;;;37.67;22.55;;;;;;;;;;5047064;28;20041;-75
2023/02/22 06:37:18;;;;;;;33.20;20.38;;;;;;;;;;5047046;28;20045;-76
2023/02/22 06:39:44;;;;;;;32.30;19.42;;;;;;;;;;5049890;28;20478;-76
2023/02/22 06:42:10;;;;;;;29.88;18.05;;;;;;;;;;5051113;28;20094;-77
2023/02/22 06:44:36;;;;;;;30.45;17.90;;;;;;;;;;5051165;28;20037;-75
2023/02/22 06:47:02;;;;;;;29.50;17.08;;;;;;;;;;5050907;28;20035;-75
2023/02/22 06:49:28;;;;;;;28.92;18.60;;;;;;;;;;5050713;28;20033;-76
2023/02/22 06:51:55;;;;;;;30.40;18.33;;;;;;;;;;5052115;28;20029;-76
2023/02/22 06:54:21;;;;;;;30.50;16.20;;;;;;;;;;5051830;28;20059;-77
2023/02/22 06:56:48;;;;;;;24.95;16.00;;;;;;;;;;5047823;28;20167;-77
2023/02/22 06:59:14;;;;;;;28.63;17.65;;;;;;;;;;5049731;28;20029;-76
2023/02/22 07:01:44;;;;;;;30.92;17.40;;;;;;;;;;5051373;28;20044;-77
2023/02/22 07:04:10;;;;;;;30.38;17.40;;;;;;;;;;5048433;28;20095;-76
2023/02/22 07:06:36;;;;;;;35.45;20.08;;;;;;;;;;5044008;28;20041;-76
2023/02/22 07:09:03;;;;;;;33.25;20.55;;;;;;;;;;5050964;28;20122;-76
2023/02/22 07:11:29;;;;;;;34.20;19.67;;;;;;;;;;5046295;28;20035;-77
2023/02/22 07:13:55;;;;;;;48.40;28.40;;;;;;;;;;5047382;28;20487;-76
2023/02/22 07:16:21;;;;;;;49.53;32.00;;;;;;;;;;5050699;28;20029;-76
2023/02/22 07:18:47;;;;;;;56.65;31.27;;;;;;;;;;5044762;28;20430;-77
2023/02/22 07:21:13;;;;;;;57.90;37.50;;;;;;;;;;5046825;28;20068;-77
2023/02/22 07:23:39;;;;;;;54.95;34.53;;;;;;;;;;5047278;28;20044;-76
2023/02/22 07:26:05;;;;;;;59.28;35.35;;;;;;;;;;5045092;28;20030;-76
2023/02/22 07:28:32;;;;;;;56.20;35.15;;;;;;;;;;5047915;28;20471;-77
2023/02/22 07:30:58;;;;;;;46.80;29.30;;;;;;;;;;5047276;28;20127;-76
2023/02/22 07:33:24;;;;;;;48.60;29.55;;;;;;;;;;5048553;28;20108;-76
2023/02/22 07:35:50;;;;;;;43.65;23.77;;;;;;;;;;5055519;28;20134;-76
2023/02/22 07:38:18;;;;;;;42.15;24.58;;;;;;;;;;5049385;28;20048;-76
2023/02/22 07:40:45;;;;;;;36.53;22.17;;;;;;;;;;5049510;28;20045;-76
2023/02/22 07:43:18;;;;;;;35.33;20.15;;;;;;;;;;5050706;28;20116;-77
2023/02/22 07:45:45;;;;;;;36.75;18.50;;;;;;;;;;5050031;28;20534;-75
2023/02/22 07:48:11;;;;;;;34.03;17.67;;;;;;;;;;5047423;28;20021;-76
2023/02/22 07:50:37;;;;;;;35.95;20.88;;;;;;;;;;5050146;28;20037;-76
2023/02/22 07:53:04;;;;;;;31.63;20.10;;;;;;;;;;5050584;28;20025;-76
2023/02/22 07:55:32;;;;;;;37.80;20.17;;;;;;;;;;5048427;28;20037;-76
2023/02/22 07:58:02;;;;;;;36.63;23.67;;;;;;;;;;5049942;28;20039;-77
2023/02/22 08:00:29;;;;;;;33.13;20.25;;;;;;;;;;5047864;28;20032;-76
2023/02/22 08:02:56;;;;;;;37.65;17.90;;;;;;;;;;5047782;28;20069;-77
2023/02/22 08:05:24;;;;;;;35.92;19.08;;;;;;;;;;5025332;28;20541;-76
2023/02/22 08:07:51;;;;;;;27.90;16.33;;;;;;;;;;5048452;28;20036;-77
2023/02/22 08:10:18;;;;;;;30.75;17.60;;;;;;;;;;5051048;28;20166;-77
2023/02/22 08:12:44;;;;;;;21.83;12.48;;;;;;;;;;5049395;28;20481;-77
2023/02/22 08:15:16;;;;;;;22.13;11.27;;;;;;;;;;5047953;28;20104;-76
2023/02/22 08:17:41;;;;;;;23.58;11.50;;;;;;;;;;5048853;28;20143;-76
2023/02/22 08:20:08;;;;;;;19.52;10.70;;;;;;;;;;5043950;28;20052;-77
2023/02/22 08:22:34;;;;;;;22.52;10.95;;;;;;;;;;5051023;28;20033;-77
2023/02/22 08:25:00;;;;;;;20.10;11.48;;;;;;;;;;5044691;28;20033;-77
2023/02/22 08:27:30;;;;;;;38.10;15.82;;;;;;;;;;5041690;28;20056;-76
2023/02/22 08:29:56;;;;;;;29.80;15.20;;;;;;;;;;5048558;28;20072;-76
2023/02/22 08:32:23;;;;;;;28.23;14.88;;;;;;;;;;5050648;28;20159;-77
2023/02/22 08:34:49;;;;;;;42.72;25.90;;;;;;;;;;5048772;28;20175;-77
2023/02/22 08:37:15;;;;;;;42.65;26.75;;;;;;;;;;5050833;28;20107;-76
2023/02/22 08:39:41;;;;;;;41.63;20.45;;;;;;;;;;5050825;28;20356;-76
2023/02/22 08:42:08;;;;;;;33.08;15.88;;;;;;;;;;5043660;28;20038;-76
2023/02/22 08:44:34;;;;;;;22.67;10.27;;;;;;;;;;5048121;28;20029;-76
2023/02/22 08:47:00;;;;;;;27.63;8.38;;;;;;;;;;5046087;28;20053;-76
2023/02/22 08:49:26;;;;;;;22.13;7.80;;;;;;;;;;5049860;28;20103;-76
2023/02/22 08:51:55;;;;;;;19.05;8.35;;;;;;;;;;5049365;28;20036;-76
2023/02/22 08:54:21;;;;;;;36.20;13.68;;;;;;;;;;5046884;28;20509;-76
2023/02/22 08:56:48;;;;;;;39.50;15.25;;;;;;;;;;5047313;28;20137;-76
2023/02/22 08:59:15;;;;;;;35.58;17.73;;;;;;;;;;5049825;28;20060;-76
2023/02/22 09:01:41;;;;;;;33.17;15.35;;;;;;;;;;5049775;28;20045;-76
2023/02/22 09:04:07;;;;;;;41.22;13.80;;;;;;;;;;5046118;28;20061;-76
2023/02/22 09:06:34;;;;;;;39.85;15.60;;;;;;;;;;5038162;28;20037;-76
2023/02/22 09:09:00;;;;;;;32.35;13.93;;;;;;;;;;5045302;28;20044;-76
2023/02/22 09:11:26;;;;;;;37.10;11.65;;;;;;;;;;5049885;28;20054;-75
2023/02/22 09:13:52;;;;;;;26.88;8.43;;;;;;;;;;5050005;28;20032;-76
2023/02/22 09:16:18;;;;;;;19.05;6.82;;;;;;;;;;5049902;28;20068;-77
2023/02/22 09:18:44;;;;;;;17.75;6.55;;;;;;;;;;5049759;28;20087;-76
2023/02/22 09:21:11;;;;;;;26.35;8.23;;;;;;;;;;5050220;28;20035;-76
2023/02/22 09:23:37;;;;;;;14.20;7.05;;;;;;;;;;5050429;28;20067;-76
2023/02/22 09:26:03;;;;;;;20.80;7.20;;;;;;;;;;5052065;28;20033;-76
2023/02/22 09:28:29;;;;;;;18.42;6.82;;;;;;;;;;5049965;28;20028;-76
2023/02/22 09:30:55;;;;;;;19.17;6.63;;;;;;;;;;5043288;28;20034;-76
2023/02/22 09:33:21;;;;;;;22.25;7.68;;;;;;;;;;5049266;28;20092;-76
2023/02/22 09:35:48;;;;;;;20.92;7.45;;;;;;;;;;5049696;28;20040;-77
2023/02/22 09:38:19;;;;;;;19.20;8.43;;;;;;;;;;5048770;28;20037;-76
2023/02/22 09:40:47;;;;;;;24.98;9.90;;;;;;;;;;5046326;28;20060;-76
2023/02/22 09:43:21;;;;;;;25.17;9.90;;;;;;;;;;5049194;28;20035;-76
2023/02/22 09:45:55;;;;;;;24.23;9.50;;;;;;;;;;5048254;28;20398;-76
2023/02/22 09:48:22;;;;;;;20.67;7.80;;;;;;;;;;5047694;28;20029;-76
2023/02/22 09:50:49;;;;;;;15.18;7.68;;;;;;;;;;5036301;28;20040;-76
2023/02/22 09:53:48;;;;;;;29.80;8.43;;;;;;;;;;5046552;28;20096;-76
2023/02/22 09:56:16;;;;;;;17.65;8.43;;;;;;;;;;5025232;28;20052;-76
2023/02/22 09:58:44;;;;;;;18.80;8.43;;;;;;;;;;5049071;28;20033;-76
2023/02/22 10:01:25;;;;;;;17.83;7.40;;;;;;;;;;5044700;28;20029;-77
2023/02/22 10:04:05;;;;;;;20.42;7.97;;;;;;;;;;5048218;28;20124;-76
2023/02/22 10:06:33;;;;;;;14.43;8.45;;;;;;;;;;5042504;28;20036;-76
2023/02/22 10:09:06;;;;;;;19.02;8.07;;;;;;;;;;5044993;28;20048;-76
2023/02/22 10:11:32;;;;;;;23.02;9.18;;;;;;;;;;5038089;28;20029;-77
2023/02/22 10:14:03;;;;;;;20.83;9.52;;;;;;;;;;5048987;28;20044;-76
2023/02/22 10:16:45;;;;;;;17.13;9.13;;;;;;;;;;5048944;28;20052;-76
2023/02/22 10:19:37;;;;;;;21.75;10.43;;;;;;;;;;5041230;28;20041;-77
2023/02/22 10:22:21;;;;;;;25.70;9.70;;;;;;;;;;5045446;28;20115;-76
2023/02/22 10:25:07;;;;;;;21.15;8.85;;;;;;;;;;5046315;28;20124;-76
2023/02/22 10:27:33;;;;;;;17.75;8.93;;;;;;;;;;5046421;28;20032;-76
2023/02/22 10:30:19;;;;;;;24.35;9.82;;;;;;;;;;5046083;28;20041;-76
2023/02/22 10:32:47;;;;;;;26.17;11.65;;;;;;;;;;5046092;28;20483;-76
2023/02/22 10:35:45;;;;;;;33.25;13.95;;;;;;;;;;5044869;28;20063;-76
2023/02/22 10:38:15;;;;;;;30.85;13.88;;;;;;;;;;5003315;28;20033;-76
2023/02/22 10:40:43;;;;;;;23.17;11.85;;;;;;;;;;5049383;28;20033;-76
2023/02/22 10:43:10;;;;;;;25.05;11.43;;;;;;;;;;5043410;28;20049;-76
2023/02/22 10:45:36;;;;;;;23.58;12.13;;;;;;;;;;5042155;28;20469;-75
2023/02/22 10:48:17;;;;;;;24.30;10.30;;;;;;;;;;5042206;28;20406;-76
2023/02/22 10:50:44;;;;;;;19.50;9.95;;;;;;;;;;5045115;28;20044;-76
2023/02/22 10:53:11;;;;;;;21.75;10.05;;;;;;;;;;5045229;28;20040;-76
2023/02/22 10:55:57;;;;;;;20.30;9.93;;;;;;;;;;5048931;28;20069;-77
2023/02/22 10:58:23;;;;;;;22.48;11.57;;;;;;;;;;5047652;28;20107;-76
2023/02/22 11:00:50;;;;;;;19.10;10.20;;;;;;;;;;5046206;28;20033;-77
2023/02/22 11:03:18;;;;;;;18.17;10.10;;;;;;;;;;5049514;28;20106;-78
2023/02/22 11:05:44;;;;;;;18.85;9.35;;;;;;;;;;5042354;28;20069;-78
2023/02/22 11:08:31;;;;;;;22.58;9.75;;;;;;;;;;5047520;28;20025;-77
2023/02/22 11:11:02;;;;;;;17.95;9.90;;;;;;;;;;5046905;28;20048;-78
2023/02/22 11:13:37;;;;;;;22.45;10.90;;;;;;;;;;5047842;28;20047;-78
2023/02/22 11:16:18;;;;;;;21.05;10.15;;;;;;;;;;5042753;28;20036;-78
2023/02/22 11:18:45;;;;;;;21.30;9.88;;;;;;;;;;5049003;28;20115;-76
2023/02/22 11:21:15;;;;;;;20.23;9.80;;;;;;;;;;5047678;28;20058;-76
2023/02/22 11:23:42;;;;;;;19.75;10.50;;;;;;;;;;5049953;28;20036;-76
2023/02/22 11:26:13;;;;;;;35.33;10.40;;;;;;;;;;5048870;28;20034;-77
2023/02/22 11:28:48;;;;;;;23.40;10.50;;;;;;;;;;5045665;28;20037;-76
2023/02/22 11:31:25;;;;;;;26.15;9.45;;;;;;;;;;5048531;28;20025;-77
2023/02/22 11:33:56;;;;;;;23.95;9.60;;;;;;;;;;5044715;28;20040;-76
2023/02/22 11:36:29;;;;;;;21.40;10.15;;;;;;;;;;5048464;28;20382;-76
2023/02/22 11:38:58;;;;;;;18.83;10.18;;;;;;;;;;5045676;28;20033;-76
2023/02/22 11:41:32;;;;;;;18.40;8.65;;;;;;;;;;5047863;28;20052;-77
2023/02/22 11:44:13;;;;;;;18.38;9.00;;;;;;;;;;5050762;28;20588;-76
2023/02/22 11:46:41;;;;;;;19.65;8.50;;;;;;;;;;5050299;28;20062;-76
2023/02/22 11:49:12;;;;;;;18.13;8.30;;;;;;;;;;5042163;28;20037;-77
2023/02/22 11:51:38;;;;;;;17.45;9.43;;;;;;;;;;5041348;28;20037;-76
2023/02/22 11:54:04;;;;;;;17.45;8.68;;;;;;;;;;5044246;28;20040;-76
2023/02/22 11:56:33;;;;;;;14.55;8.23;;;;;;;;;;5046613;28;20565;-76
2023/02/22 11:59:06;;;;;;;17.13;8.88;;;;;;;;;;5046861;28;20037;-76
2023/02/22 12:01:46;;;;;;;16.15;9.23;;;;;;;;;;5042781;28;20841;-76
2023/02/22 12:04:15;;;;;;;16.52;8.85;;;;;;;;;;5050313;28;20102;-77
2023/02/22 12:06:44;;;;;;;19.25;8.65;;;;;;;;;;5050566;28;20602;-76
2023/02/22 12:09:12;;;;;;;16.40;8.85;;;;;;;;;;5043415;28;20041;-76
2023/02/22 12:11:43;;;;;;;14.07;7.88;;;;;;;;;;5049793;28;20499;-76
2023/02/22 12:14:12;;;;;;;16.35;8.68;;;;;;;;;;5045063;28;20021;-76
2023/02/22 12:16:45;;;;;;;17.38;9.68;;;;;;;;;;5047903;28;20037;-76
2023/02/22 12:19:11;;;;;;;16.45;8.27;;;;;;;;;;5045602;28;20040;-76
2023/02/22 12:21:40;;;;;;;18.30;8.50;;;;;;;;;;5051131;28;20037;-76
2023/02/22 12:24:13;;;;;;;16.88;8.65;;;;;;;;;;5057669;28;20036;-76
2023/02/22 12:26:40;;;;;;;20.63;8.27;;;;;;;;;;5046916;28;20864;-76
2023/02/22 12:29:06;;;;;;;20.58;8.60;;;;;;;;;;5050667;28;20406;-76
2023/02/22 12:31:35;;;;;;;18.80;9.05;;;;;;;;;;5049655;28;20033;-76
2023/02/22 12:34:23;;;;;;;15.93;8.70;;;;;;;;;;5050578;28;20036;-76
2023/02/22 12:37:10;;;;;;;17.55;8.25;;;;;;;;;;5046610;28;20712;-76
2023/02/22 12:39:45;;;;;;;20.50;9.32;;;;;;;;;;5029484;28;20045;-76
2023/02/22 12:42:17;;;;;;;18.45;10.52;;;;;;;;;;5039112;28;20474;-76
2023/02/22 12:44:47;;;;;;;19.13;10.55;;;;;;;;;;5038227;28;20065;-76
2023/02/22 12:47:15;;;;;;;17.98;10.52;;;;;;;;;;5049859;28;20028;-77
2023/02/22 12:49:51;;;;;;;20.42;10.75;;;;;;;;;;5049584;28;20057;-76
2023/02/22 12:52:39;;;;;;;19.33;10.80;;;;;;;;;;5049142;28;20024;-76
2023/02/22 12:55:05;;;;;;;21.52;11.73;;;;;;;;;;5049885;28;20037;-76
2023/02/22 12:57:34;;;;;;;17.00;9.68;;;;;;;;;;5050730;28;20367;-76
2023/02/22 13:00:15;;;;;;;17.17;11.15;;;;;;;;;;5051468;28;20037;-76
2023/02/22 13:02:44;;;;;;;15.50;10.23;;;;;;;;;;5032449;28;20035;-76
2023/02/22 13:05:16;;;;;;;17.58;11.18;;;;;;;;;;5049743;28;20049;-76
2023/02/22 13:07:42;;;;;;;24.17;14.48;;;;;;;;;;5049835;28;20037;-76
2023/02/22 13:10:22;;;;;;;27.65;13.55;;;;;;;;;;5049348;28;20035;-76
2023/02/22 13:13:02;;;;;;;21.02;12.43;;;;;;;;;;5049832;28;20075;-76
2023/02/22 13:15:31;;;;;;;20.92;12.55;;;;;;;;;;5040375;28;20040;-76
2023/02/22 13:18:14;;;;;;;19.50;11.65;;;;;;;;;;5043188;28;20041;-76
2023/02/22 13:20:46;;;;;;;21.80;11.52;;;;;;;;;;5042932;28;20424;-76
2023/02/22 13:23:28;;;;;;;19.23;10.95;;;;;;;;;;5040353;28;20061;-76
2023/02/22 13:25:58;;;;;;;17.35;10.90;;;;;;;;;;5048576;28;20044;-77
2023/02/22 13:28:31;;;;;;;21.52;12.40;;;;;;;;;;5049598;28;20035;-76
2023/02/22 13:30:56;;;;;;;;;;;;;;;;;;5046671;28;20029;-76
2023/02/22 13:33:41;;;;;;;19.67;11.90;;;;;;;;;;5047719;28;19977;-76
2023/02/22 13:36:12;;;;;;;18.10;11.02;;;;;;;;;;5045223;28;20036;-76
2023/02/22 13:38:56;;;;;;;19.35;11.18;;;;;;;;;;5044034;28;21158;-76
2023/02/22 13:41:41;;;;;;;21.45;11.95;;;;;;;;;;5048173;28;20051;-76
2023/02/22 13:44:24;;;;;;;23.45;13.65;;;;;;;;;;5048725;28;20497;-76
2023/02/22 13:46:59;;;;;;;20.27;12.80;;;;;;;;;;5045514;28;20035;-76
2023/02/22 13:49:28;;;;;;;21.17;11.95;;;;;;;;;;5042581;28;20111;-76
2023/02/22 13:52:07;;;;;;;19.98;13.45;;;;;;;;;;5048616;28;20033;-76
2023/02/22 13:54:33;;;;;;;18.95;12.63;;;;;;;;;;5040839;28;20466;-76
2023/02/22 13:57:01;;;;;;;23.05;13.18;;;;;;;;;;5048481;28;20060;-76
2023/02/22 13:59:35;;;;;;;18.48;13.10;;;;;;;;;;5049229;28;20033;-76
2023/02/22 14:02:06;;;;;;;21.92;14.02;;;;;;;;;;5047892;28;20039;-76
2023/02/22 14:04:35;;;;;;;22.10;14.07;;;;;;;;;;5047915;28;20434;-76
2023/02/22 14:07:20;;;;;;;24.65;14.55;;;;;;;;;;5049146;28;20029;-76
2023/02/22 14:09:48;;;;;;;25.23;15.95;;;;;;;;;;5037028;28;20483;-76
2023/02/22 14:12:29;;;;;;;20.33;15.23;;;;;;;;;;5042633;28;20055;-76
2023/02/22 14:15:13;;;;;;;19.20;14.07;;;;;;;;;;5041646;28;20035;-76
2023/02/22 14:17:40;;;;;;;21.65;13.48;;;;;;;;;;5041884;28;20021;-76
2023/02/22 14:20:15;;;;;;;20.80;13.70;;;;;;;;;;5046544;28;20459;-76
2023/02/22 14:22:42;;;;;;;20.58;14.38;;;;;;;;;;5048646;28;20484;-76
2023/02/22 14:25:27;;;;;;;25.70;15.13;;;;;;;;;;5048691;28;20084;-76
2023/02/22 14:27:53;;;;;;;22.30;15.25;;;;;;;;;;5044968;28;20064;-76
2023/02/22 14:30:30;;;;;;;29.13;18.17;;;;;;;;;;5042875;28;20025;-76
2023/02/22 14:32:58;;;;;;;35.38;20.05;;;;;;;;;;5047637;28;20033;-75
2023/02/22 14:35:25;;;;;;;32.45;18.23;;;;;;;;;;5047867;28;20116;-76